Airfield :
LOGIN :

Register | Disclaimer

   EN    FR    IT 

 










Legend :    VFR   Marginal VFR   IFR   Intensive IFR   Very Intensive IFR
Visi :
Ceiling :
>= 8 km
>= 3000ft
5 to 8 km
1000 to 3000 ft
1500m to 5 km
500 to 1000 ft
800 to 1500m
200 to 500 ft
< 800m
< 200 ft
Symbols :   Thunderstorms  Fog  Heavy snow  Heavy precipitations  Wind > 20 kt
SIGMETs :     Misc.  Thunderstorms  Icing  Turbulence  Mountain Waves  Volcanic Ashes







- Airport Elevation : 1487 ft
- IATA code : MUC


EDDM - München Franz Josef Strauss

CURRENT METAR :
  • 220750Z 01004KT 340V050 CAVOK 04/03 Q1027 NOSIG

EXPIRED METARs :
  • 220720Z VRB01KT CAVOK 01/01 Q1027 NOSIG
  • 220650Z VRB01KT 9999 BCFG NSC M01/M01 Q1027 NOSIG
  • 220620Z 03001KT 9999 BCFG NSC M02/M02 Q1026 NOSIG
  • 220550Z 29001KT 9999 R08L/0400VP2000D R08R/0700VP2000D BCFG NSC M02/M03 Q1026 NOSIG
  • 220520Z 19001KT 9999 R08L/0600VP2000U BCFG NSC M02/M03 Q1026 NOSIG

TAF TAF EDDM
Valid from the 22 at 06:00 until the 23 at 12:00 UTC


220500Z 2206/2312 VRB03KT CAVOK
BECMG 2207/2209 07006KT
BECMG 2214/2216 30005KT
PROB30
TEMPO 2302/2308 3000 BR BKN012
BECMG 2307/2310 26012KT
No reported NOTAMs for that airfield.



MET'MAP, your aeronautical weather chart ! - Copyright ORBIFLY December 2007 - Disclaimer

ORBIFLY MET'MAP TEAM :

Programming & Development : Alexandra Zaïnal
Concept & Development : Baudouin d'Aumeries
Co-Development & Prog : Marc-Olivier Méhu
Technical & hardware support : Manuel Goepfert

Contact : metmap@orbifly.com




SOURCES & CREDITS :

   NOAA